createdAt,value
2022-10-08T00:00:01.020Z,12.18
2022-10-08T00:02:56.670Z,9.82
2022-10-08T00:05:42.646Z,8.80
2022-10-08T00:08:35.596Z,10.90
2022-10-08T00:11:24.749Z,11.57
2022-10-08T00:14:10.279Z,6.85
2022-10-08T00:16:55.783Z,10.52
2022-10-08T00:19:41.423Z,9.85
2022-10-08T00:22:26.804Z,6.75
2022-10-08T00:25:12.103Z,8.07
2022-10-08T00:27:57.589Z,8.75
2022-10-08T00:30:44.075Z,10.23
2022-10-08T00:33:29.415Z,5.45
2022-10-08T00:36:14.864Z,8.32
2022-10-08T00:39:21.679Z,12.50
2022-10-08T00:42:15.474Z,11.77
2022-10-08T00:45:02.016Z,6.38
2022-10-08T00:47:49.187Z,12.43
2022-10-08T00:50:36.016Z,16.33
2022-10-08T00:53:21.572Z,14.00
2022-10-08T00:56:06.975Z,10.30
2022-10-08T00:58:58.359Z,15.93
2022-10-08T01:01:47.605Z,11.00
2022-10-08T01:04:33.709Z,9.88
2022-10-08T01:07:32.969Z,18.08
2022-10-08T01:10:42.124Z,15.73
2022-10-08T01:14:16.211Z,15.45
2022-10-08T01:17:26.968Z,16.83
2022-10-08T01:20:34.434Z,20.83
2022-10-08T01:23:20.042Z,18.90
2022-10-08T01:26:43.356Z,12.38
2022-10-08T01:29:42.876Z,17.55
2022-10-08T01:32:37.341Z,18.45
2022-10-08T01:35:31.839Z,17.00
2022-10-08T01:38:22.039Z,17.88
2022-10-08T01:41:10.538Z,22.88
2022-10-08T01:44:08.872Z,14.02
2022-10-08T01:46:59.032Z,12.90
2022-10-08T01:50:08.603Z,18.50
2022-10-08T01:53:03.367Z,16.80
2022-10-08T01:55:53.213Z,13.82
2022-10-08T01:58:43.842Z,19.23
2022-10-08T02:01:33.459Z,21.55
2022-10-08T02:04:36.963Z,19.58
2022-10-08T02:07:31.627Z,18.55
2022-10-08T02:10:22.073Z,18.95
2022-10-08T02:13:11.563Z,21.77
2022-10-08T02:16:12.003Z,24.25
2022-10-08T02:19:25.513Z,23.05
2022-10-08T02:22:14.476Z,22.10
2022-10-08T02:25:10.057Z,24.75
2022-10-08T02:28:20.207Z,24.20
2022-10-08T02:31:15.869Z,23.33
2022-10-08T02:34:06.916Z,31.55
2022-10-08T02:37:21.566Z,23.23
2022-10-08T02:40:14.038Z,26.77
2022-10-08T02:43:05.100Z,22.80
2022-10-08T02:45:57.791Z,15.80
2022-10-08T02:48:52.395Z,22.20
2022-10-08T02:51:41.437Z,21.70
2022-10-08T02:54:30.083Z,20.15
2022-10-08T02:57:21.432Z,22.10
2022-10-08T03:00:07.690Z,26.42
2022-10-08T03:03:02.078Z,31.23
2022-10-08T03:05:50.301Z,20.73
2022-10-08T03:08:41.021Z,19.60
2022-10-08T03:11:27.529Z,21.10
2022-10-08T03:14:15.463Z,16.92
2022-10-08T03:17:01.229Z,22.42
2022-10-08T03:19:49.255Z,19.08
2022-10-08T03:22:35.423Z,21.52
2022-10-08T03:25:20.632Z,25.23
2022-10-08T03:28:06.053Z,21.02
2022-10-08T03:30:51.574Z,17.08
2022-10-08T03:33:37.092Z,22.63
2022-10-08T03:36:23.838Z,16.85
2022-10-08T03:39:11.416Z,25.58
2022-10-08T03:41:56.814Z,14.82
2022-10-08T03:44:42.054Z,21.30
2022-10-08T03:47:27.619Z,19.52
2022-10-08T03:50:13.150Z,22.83
2022-10-08T03:52:58.884Z,17.48
2022-10-08T03:55:48.263Z,13.15
2022-10-08T03:58:33.777Z,22.17
2022-10-08T04:01:22.949Z,25.45
2022-10-08T04:04:08.399Z,19.17
2022-10-08T04:06:53.835Z,19.73
2022-10-08T04:09:38.948Z,19.95
2022-10-08T04:12:24.383Z,22.10
2022-10-08T04:15:11.562Z,13.35
2022-10-08T04:17:57.101Z,16.73
2022-10-08T04:20:43.924Z,26.88
2022-10-08T04:23:32.134Z,23.70
2022-10-08T04:26:18.120Z,20.08
2022-10-08T04:29:03.661Z,19.00
2022-10-08T04:31:49.199Z,21.73
2022-10-08T04:34:34.800Z,18.02
2022-10-08T04:37:23.344Z,14.35
2022-10-08T04:40:09.433Z,20.80
2022-10-08T04:42:55.131Z,15.68
2022-10-08T04:45:45.320Z,15.50
2022-10-08T04:48:30.993Z,16.33
2022-10-08T04:51:17.807Z,14.73
2022-10-08T04:54:03.573Z,10.80
2022-10-08T04:56:48.957Z,17.20
2022-10-08T04:59:34.368Z,19.92
2022-10-08T05:02:19.877Z,17.33
2022-10-08T05:05:08.093Z,19.05
2022-10-08T05:07:58.787Z,15.00
2022-10-08T05:10:50.201Z,15.65
2022-10-08T05:13:35.280Z,12.40
2022-10-08T05:16:21.380Z,12.27
2022-10-08T05:19:07.295Z,15.38
2022-10-08T05:21:52.398Z,14.13
2022-10-08T05:24:37.906Z,15.05
2022-10-08T05:27:26.222Z,19.40
2022-10-08T05:30:11.873Z,15.65
2022-10-08T05:32:57.414Z,17.70
2022-10-08T05:35:42.775Z,19.98
2022-10-08T05:38:34.650Z,17.15
2022-10-08T05:41:23.503Z,30.05
2022-10-08T05:44:10.963Z,25.38
2022-10-08T05:46:56.450Z,14.93
2022-10-08T05:49:44.516Z,11.55
2022-10-08T05:52:29.972Z,18.52
2022-10-08T05:55:15.447Z,15.70
2022-10-08T05:58:00.960Z,11.75
2022-10-08T06:00:57.135Z,22.75
2022-10-08T06:03:43.087Z,19.10
2022-10-08T06:06:28.842Z,15.30
2022-10-08T06:09:18.044Z,19.63
2022-10-08T06:12:03.180Z,11.45
2022-10-08T06:14:48.553Z,13.10
2022-10-08T06:17:35.641Z,12.98
2022-10-08T06:20:21.340Z,9.40
2022-10-08T06:23:06.558Z,13.93
2022-10-08T06:25:52.048Z,11.90
2022-10-08T06:28:39.029Z,8.05
2022-10-08T06:31:24.425Z,11.30
2022-10-08T06:34:10.175Z,11.48
2022-10-08T06:36:55.361Z,19.45
2022-10-08T06:39:43.848Z,11.60
2022-10-08T06:42:32.973Z,15.02
2022-10-08T06:45:18.615Z,9.80
2022-10-08T06:48:04.212Z,7.88
2022-10-08T06:50:56.958Z,14.60
2022-10-08T06:53:43.620Z,16.02
2022-10-08T06:56:29.202Z,16.67
2022-10-08T06:59:14.583Z,16.23
2022-10-08T07:02:00.154Z,14.43
2022-10-08T07:04:45.452Z,10.65
2022-10-08T07:07:32.504Z,17.13
2022-10-08T07:10:20.751Z,13.25
2022-10-08T07:13:06.089Z,7.45
2022-10-08T07:15:51.599Z,11.73
2022-10-08T07:18:38.505Z,9.85
2022-10-08T07:21:24.384Z,15.73
2022-10-08T07:24:09.824Z,15.60
2022-10-08T07:26:55.020Z,12.80
2022-10-08T07:29:43.606Z,11.10
2022-10-08T07:32:28.997Z,7.88
2022-10-08T07:35:14.210Z,15.75
2022-10-08T07:37:59.774Z,7.30
2022-10-08T07:40:46.965Z,14.07
2022-10-08T07:43:32.420Z,12.88
2022-10-08T07:46:17.976Z,10.48
2022-10-08T07:49:04.745Z,11.27
2022-10-08T07:51:50.189Z,15.25
2022-10-08T07:54:35.873Z,15.07
2022-10-08T07:57:23.763Z,11.27
2022-10-08T08:00:09.776Z,12.45
2022-10-08T08:02:58.320Z,13.77
2022-10-08T08:05:43.525Z,13.95
2022-10-08T08:08:29.055Z,10.40
2022-10-08T08:11:18.239Z,13.90
2022-10-08T08:14:03.859Z,9.52
2022-10-08T08:16:49.323Z,8.48
2022-10-08T08:19:36.922Z,16.05
2022-10-08T08:22:22.099Z,11.40
2022-10-08T08:25:08.483Z,11.32
2022-10-08T08:27:53.772Z,10.93
2022-10-08T08:30:39.212Z,14.27
2022-10-08T08:33:24.887Z,13.57
2022-10-08T08:36:12.180Z,9.43
2022-10-08T08:38:58.006Z,10.57
2022-10-08T08:41:54.155Z,9.35
2022-10-08T08:44:42.276Z,10.10
2022-10-08T08:47:45.927Z,8.02
2022-10-08T08:50:35.704Z,7.60
2022-10-08T08:53:21.933Z,10.73
2022-10-08T08:56:12.399Z,7.40
2022-10-08T08:59:08.223Z,9.82
2022-10-08T09:02:01.392Z,8.15
2022-10-08T09:05:00.796Z,11.65
2022-10-08T09:07:51.283Z,10.35
2022-10-08T09:10:45.408Z,7.45
2022-10-08T09:13:36.684Z,10.75
2022-10-08T09:16:22.185Z,8.80
2022-10-08T09:19:09.308Z,13.68
2022-10-08T09:21:54.503Z,12.50
2022-10-08T09:24:40.284Z,8.88
2022-10-08T09:27:42.080Z,11.88
2022-10-08T09:30:32.478Z,7.78
2022-10-08T09:33:29.526Z,8.50
2022-10-08T09:36:28.877Z,19.33
2022-10-08T09:39:22.947Z,9.52
2022-10-08T09:42:17.597Z,9.65
2022-10-08T09:45:24.002Z,17.27
2022-10-08T09:48:19.674Z,13.60
2022-10-08T09:51:17.129Z,9.63
2022-10-08T09:54:04.198Z,13.15
2022-10-08T09:57:07.691Z,9.02
2022-10-08T10:00:01.891Z,9.68
2022-10-08T10:02:54.271Z,9.57
2022-10-08T10:05:40.608Z,10.80
2022-10-08T10:08:41.450Z,12.75
2022-10-08T10:11:50.467Z,9.13
2022-10-08T10:14:50.047Z,12.40
2022-10-08T10:17:56.351Z,11.15
2022-10-08T10:20:57.327Z,6.25
2022-10-08T10:24:23.771Z,7.22
2022-10-08T10:27:15.374Z,10.82
2022-10-08T10:30:24.734Z,6.60
2022-10-08T10:33:22.507Z,11.55
2022-10-08T10:36:14.567Z,9.38
2022-10-08T10:39:26.880Z,7.32
2022-10-08T10:42:18.764Z,12.10
2022-10-08T10:45:16.243Z,13.43
2022-10-08T10:48:02.995Z,11.52
2022-10-08T10:51:21.016Z,7.13
2022-10-08T10:54:21.034Z,9.32
2022-10-08T10:57:16.428Z,11.80
2022-10-08T11:00:22.536Z,11.15
2022-10-08T11:03:28.048Z,9.45
2022-10-08T11:06:28.592Z,12.52
2022-10-08T11:09:41.735Z,11.15
2022-10-08T11:13:07.730Z,11.20
2022-10-08T11:16:21.288Z,9.13
2022-10-08T11:19:19.896Z,7.18
2022-10-08T11:22:11.162Z,7.85
2022-10-08T11:25:10.371Z,6.57
2022-10-08T11:28:23.154Z,12.63
2022-10-08T11:31:39.972Z,6.63
2022-10-08T11:34:54.517Z,7.07
2022-10-08T11:38:04.259Z,6.55
2022-10-08T11:41:20.001Z,5.97
2022-10-08T11:44:09.837Z,12.50
2022-10-08T11:47:33.648Z,2.05
2022-10-08T11:50:31.584Z,9.30
2022-10-08T11:53:21.168Z,9.32
2022-10-08T11:56:10.818Z,7.50
2022-10-08T11:58:59.833Z,7.55
2022-10-08T12:02:33.890Z,5.32
2022-10-08T12:05:22.683Z,7.47
2022-10-08T12:08:08.957Z,6.70
2022-10-08T12:10:54.307Z,5.50
2022-10-08T12:13:39.918Z,9.38
2022-10-08T12:16:51.349Z,8.63
2022-10-08T12:19:44.708Z,6.47
2022-10-08T12:22:30.195Z,7.63
2022-10-08T12:25:45.432Z,11.68
2022-10-08T12:28:35.312Z,12.00
2022-10-08T12:31:49.701Z,9.77
2022-10-08T12:34:35.374Z,12.90
2022-10-08T12:37:40.475Z,9.52
2022-10-08T12:40:30.512Z,7.30
2022-10-08T12:43:35.632Z,7.38
2022-10-08T12:46:29.443Z,9.02
2022-10-08T12:49:38.963Z,3.80
2022-10-08T12:52:24.569Z,7.13
2022-10-08T12:55:23.181Z,7.78
2022-10-08T12:58:16.318Z,8.60
2022-10-08T13:01:04.364Z,8.57
2022-10-08T13:04:10.574Z,8.65
2022-10-08T13:06:56.050Z,8.43
2022-10-08T13:09:44.805Z,6.28
2022-10-08T13:12:30.193Z,5.50
2022-10-08T13:15:22.830Z,7.85
2022-10-08T13:18:21.741Z,11.07
2022-10-08T13:21:27.218Z,12.50
2022-10-08T13:24:12.742Z,6.40
2022-10-08T13:26:58.339Z,10.07
2022-10-08T13:29:44.027Z,8.85
2022-10-08T13:32:34.903Z,11.93
2022-10-08T13:35:23.504Z,10.98
2022-10-08T13:38:16.641Z,9.25
2022-10-08T13:41:06.336Z,9.43
2022-10-08T13:43:51.855Z,8.80
2022-10-08T13:46:37.474Z,8.48
2022-10-08T13:49:29.847Z,8.10
2022-10-08T13:52:20.320Z,10.07
2022-10-08T13:55:15.856Z,11.07
2022-10-08T13:58:03.380Z,9.15
2022-10-08T14:00:49.418Z,8.07
2022-10-08T14:03:35.449Z,6.03
2022-10-08T14:06:23.867Z,10.98
2022-10-08T14:09:16.309Z,10.15
2022-10-08T14:12:05.327Z,6.50
2022-10-08T14:14:50.459Z,7.68
2022-10-08T14:17:39.609Z,6.38
2022-10-08T14:20:24.954Z,7.82
2022-10-08T14:23:13.149Z,6.43
2022-10-08T14:25:58.944Z,10.20
2022-10-08T14:28:44.721Z,8.98
2022-10-08T14:31:30.524Z,12.10
2022-10-08T14:34:15.903Z,7.43
2022-10-08T14:37:01.687Z,7.60
2022-10-08T14:39:51.508Z,10.43
2022-10-08T14:42:36.979Z,12.07
2022-10-08T14:45:22.938Z,10.50
2022-10-08T14:48:10.483Z,10.60
2022-10-08T14:50:59.663Z,7.53
2022-10-08T14:53:45.539Z,7.43
2022-10-08T14:56:30.994Z,7.18
2022-10-08T14:59:16.519Z,8.40
2022-10-08T15:02:02.202Z,8.98
2022-10-08T15:04:47.554Z,13.52
2022-10-08T15:07:33.004Z,6.57
2022-10-08T15:10:18.652Z,9.75
2022-10-08T15:13:04.007Z,9.88
2022-10-08T15:15:49.616Z,7.97
2022-10-08T15:18:35.438Z,7.88
2022-10-08T15:21:20.917Z,9.70
2022-10-08T15:24:06.603Z,9.77
2022-10-08T15:26:51.636Z,8.35
2022-10-08T15:29:37.304Z,8.05
2022-10-08T15:32:28.339Z,8.23
2022-10-08T15:35:15.971Z,7.75
2022-10-08T15:38:01.389Z,7.72
2022-10-08T15:40:46.684Z,12.80
2022-10-08T15:43:33.749Z,9.95
2022-10-08T15:46:20.646Z,9.60
2022-10-08T15:49:08.917Z,14.50
2022-10-08T15:51:56.370Z,14.60
2022-10-08T15:54:42.020Z,10.15
2022-10-08T15:57:27.380Z,12.45
2022-10-08T16:00:13.518Z,9.48
2022-10-08T16:02:59.334Z,7.53
2022-10-08T16:05:44.672Z,9.40
2022-10-08T16:08:31.800Z,10.25
2022-10-08T16:11:18.867Z,16.85
2022-10-08T16:14:08.618Z,6.05
2022-10-08T16:16:55.160Z,9.00
2022-10-08T16:19:40.572Z,10.50
2022-10-08T16:22:25.811Z,7.68
2022-10-08T16:25:11.265Z,13.90
2022-10-08T16:27:56.872Z,12.32
2022-10-08T16:30:42.270Z,11.13
2022-10-08T16:33:30.999Z,9.57
2022-10-08T16:36:30.701Z,9.60
2022-10-08T16:39:18.136Z,13.52
2022-10-08T16:42:03.968Z,12.27
2022-10-08T16:44:49.399Z,12.55
2022-10-08T16:47:34.897Z,12.60
2022-10-08T16:50:20.319Z,14.05
2022-10-08T16:53:08.515Z,12.50
2022-10-08T16:55:53.913Z,10.63
2022-10-08T16:58:39.391Z,9.20
2022-10-08T17:01:25.905Z,15.98
2022-10-08T17:04:11.698Z,14.40
2022-10-08T17:06:57.317Z,14.32
2022-10-08T17:09:42.736Z,9.30
2022-10-08T17:12:28.151Z,11.38
2022-10-08T17:15:13.770Z,9.60
2022-10-08T17:17:58.957Z,13.30
2022-10-08T17:20:44.447Z,13.73
2022-10-08T17:23:36.521Z,10.23
2022-10-08T17:26:23.467Z,13.60
2022-10-08T17:29:12.898Z,7.85
2022-10-08T17:31:59.690Z,12.10
2022-10-08T17:34:44.858Z,11.40
2022-10-08T17:37:30.234Z,17.02
2022-10-08T17:40:16.991Z,12.23
2022-10-08T17:43:02.695Z,16.40
2022-10-08T17:45:48.320Z,19.02
2022-10-08T17:48:34.028Z,10.88
2022-10-08T17:51:22.585Z,8.48
2022-10-08T17:54:12.179Z,9.25
2022-10-08T17:56:58.648Z,13.45
2022-10-08T17:59:49.991Z,10.48
2022-10-08T18:02:35.080Z,10.70
2022-10-08T18:05:20.703Z,10.75
2022-10-08T18:08:06.392Z,11.20
2022-10-08T18:10:51.794Z,10.00
2022-10-08T18:13:37.927Z,15.75
2022-10-08T18:16:25.465Z,15.90
2022-10-08T18:19:13.984Z,20.48
2022-10-08T18:21:59.418Z,12.75
2022-10-08T18:24:44.964Z,21.33
2022-10-08T18:27:30.517Z,19.13
2022-10-08T18:30:16.175Z,18.00
2022-10-08T18:33:01.455Z,19.60
2022-10-08T18:35:46.775Z,17.08
2022-10-08T18:38:35.275Z,11.63
2022-10-08T18:41:24.230Z,14.73
2022-10-08T18:44:15.896Z,17.25
2022-10-08T18:47:05.225Z,18.08
2022-10-08T18:49:50.920Z,17.55
2022-10-08T18:52:36.761Z,17.17
2022-10-08T18:55:22.382Z,23.45
2022-10-08T18:58:09.131Z,15.45
2022-10-08T19:00:58.214Z,21.63
2022-10-08T19:03:52.578Z,18.58
2022-10-08T19:06:39.586Z,17.27
2022-10-08T19:09:24.891Z,15.32
2022-10-08T19:12:10.463Z,11.75
2022-10-08T19:14:55.985Z,18.90
2022-10-08T19:17:41.674Z,19.10
2022-10-08T19:20:27.138Z,18.85
2022-10-08T19:23:12.557Z,29.55
2022-10-08T19:25:58.284Z,16.70
2022-10-08T19:28:49.463Z,14.32
2022-10-08T19:31:35.607Z,20.17
2022-10-08T19:34:23.187Z,19.10
2022-10-08T19:37:08.556Z,19.85
2022-10-08T19:39:54.079Z,29.23
2022-10-08T19:42:39.698Z,21.10
2022-10-08T19:45:34.375Z,19.13
2022-10-08T19:48:19.723Z,21.10
2022-10-08T19:51:07.711Z,18.08
2022-10-08T19:53:53.581Z,13.25
2022-10-08T19:56:41.757Z,20.90
2022-10-08T19:59:30.292Z,20.80
2022-10-08T20:02:16.126Z,21.35
2022-10-08T20:05:01.663Z,23.95
2022-10-08T20:07:46.808Z,13.05
2022-10-08T20:10:32.738Z,22.75
2022-10-08T20:13:18.151Z,18.75
2022-10-08T20:16:06.108Z,16.75
2022-10-08T20:18:53.597Z,20.83
2022-10-08T20:21:39.031Z,20.33
2022-10-08T20:24:27.728Z,21.10
2022-10-08T20:27:12.862Z,22.38
2022-10-08T20:29:58.211Z,19.08
2022-10-08T20:32:43.646Z,21.65
2022-10-08T20:35:29.215Z,24.45
2022-10-08T20:38:14.645Z,18.77
2022-10-08T20:41:00.503Z,23.00
2022-10-08T20:43:46.189Z,18.33
2022-10-08T20:46:36.663Z,24.08
2022-10-08T20:49:24.880Z,22.13
2022-10-08T20:52:10.536Z,16.60
2022-10-08T20:54:55.906Z,19.73
2022-10-08T20:57:41.199Z,18.67
2022-10-08T21:00:26.636Z,15.70
2022-10-08T21:03:21.016Z,15.27
2022-10-08T21:06:07.709Z,24.20
2022-10-08T21:08:55.071Z,17.33
2022-10-08T21:11:41.675Z,18.08
2022-10-08T21:14:27.052Z,22.88
2022-10-08T21:17:12.811Z,19.27
2022-10-08T21:19:58.460Z,14.07
2022-10-08T21:22:43.739Z,20.15
2022-10-08T21:25:29.387Z,16.45
2022-10-08T21:28:15.376Z,17.58
2022-10-08T21:31:04.092Z,15.98
2022-10-08T21:33:51.828Z,17.10
2022-10-08T21:36:40.227Z,16.45
2022-10-08T21:39:28.452Z,13.10
2022-10-08T21:42:14.276Z,15.95
2022-10-08T21:44:59.966Z,16.35
2022-10-08T21:47:48.059Z,17.40
2022-10-08T21:50:36.088Z,20.33
2022-10-08T21:53:21.755Z,17.33
2022-10-08T21:56:16.355Z,15.32
2022-10-08T21:59:02.752Z,16.73
2022-10-08T22:01:50.343Z,17.13
2022-10-08T22:04:35.729Z,15.70
2022-10-08T22:07:20.875Z,24.10
2022-10-08T22:10:07.039Z,16.40
2022-10-08T22:12:52.700Z,22.30
2022-10-08T22:15:39.468Z,19.10
2022-10-08T22:18:29.802Z,21.08
2022-10-08T22:21:18.160Z,22.88
2022-10-08T22:24:04.476Z,22.60
2022-10-08T22:26:49.661Z,27.60
2022-10-08T22:29:39.077Z,15.13
2022-10-08T22:32:24.589Z,24.75
2022-10-08T22:35:13.570Z,22.73
2022-10-08T22:37:59.239Z,16.20
2022-10-08T22:40:44.440Z,16.80
2022-10-08T22:43:29.935Z,27.52
2022-10-08T22:46:21.619Z,21.58
2022-10-08T22:49:09.554Z,20.27
2022-10-08T22:51:57.804Z,22.48
2022-10-08T22:54:43.004Z,17.92
2022-10-08T22:57:28.516Z,23.05
2022-10-08T23:00:14.949Z,22.10
2022-10-08T23:03:00.259Z,22.98
2022-10-08T23:05:45.534Z,23.80
2022-10-08T23:08:33.716Z,17.27
2022-10-08T23:11:19.051Z,21.42
2022-10-08T23:14:05.403Z,20.35
2022-10-08T23:16:50.613Z,25.75
2022-10-08T23:19:35.959Z,32.40
2022-10-08T23:22:21.267Z,18.30
2022-10-08T23:25:09.564Z,19.00
2022-10-08T23:27:54.897Z,20.17
2022-10-08T23:30:44.487Z,24.83
2022-10-08T23:33:30.050Z,20.13
2022-10-08T23:36:18.959Z,24.90
2022-10-08T23:39:05.803Z,32.08
2022-10-08T23:41:51.651Z,23.55
2022-10-08T23:44:36.863Z,27.25
2022-10-08T23:47:22.565Z,22.65
2022-10-08T23:50:08.258Z,27.95
2022-10-08T23:52:53.806Z,22.13
2022-10-08T23:55:38.853Z,24.17
2022-10-08T23:58:24.496Z,22.13
